sensor_id;sensor_type;location;lat;lon;timestamp;P1;durP1;ratioP1;P2;durP2;ratioP2
59193;SDS011;44967;48.598;15.650;2023-06-24T00:01:35;0.75;;;0.30;;
59193;SDS011;44967;48.598;15.650;2023-06-24T00:04:03;1.05;;;0.10;;
59193;SDS011;44967;48.598;15.650;2023-06-24T00:06:29;0.28;;;0.20;;
59193;SDS011;44967;48.598;15.650;2023-06-24T00:08:55;1.27;;;0.28;;
59193;SDS011;44967;48.598;15.650;2023-06-24T00:11:29;0.35;;;0.20;;
59193;SDS011;44967;48.598;15.650;2023-06-24T00:13:55;0.63;;;0.30;;
59193;SDS011;44967;48.598;15.650;2023-06-24T00:16:20;0.10;;;0.10;;
59193;SDS011;44967;48.598;15.650;2023-06-24T00:18:55;0.10;;;0.10;;
59193;SDS011;44967;48.598;15.650;2023-06-24T00:21:24;0.65;;;0.30;;
59193;SDS011;44967;48.598;15.650;2023-06-24T00:23:55;0.20;;;0.20;;
59193;SDS011;44967;48.598;15.650;2023-06-24T00:26:22;1.13;;;0.20;;
59193;SDS011;44967;48.598;15.650;2023-06-24T00:28:47;0.20;;;0.17;;
59193;SDS011;44967;48.598;15.650;2023-06-24T00:31:13;0.10;;;0.10;;
59193;SDS011;44967;48.598;15.650;2023-06-24T00:33:38;0.20;;;0.20;;
59193;SDS011;44967;48.598;15.650;2023-06-24T00:36:04;0.20;;;0.20;;
59193;SDS011;44967;48.598;15.650;2023-06-24T00:38:32;0.10;;;0.10;;
59193;SDS011;44967;48.598;15.650;2023-06-24T00:40:58;0.25;;;0.13;;
59193;SDS011;44967;48.598;15.650;2023-06-24T00:43:24;0.20;;;0.20;;
59193;SDS011;44967;48.598;15.650;2023-06-24T00:45:50;0.10;;;0.10;;
59193;SDS011;44967;48.598;15.650;2023-06-24T00:48:18;0.10;;;0.10;;
59193;SDS011;44967;48.598;15.650;2023-06-24T00:50:45;0.93;;;0.20;;
59193;SDS011;44967;48.598;15.650;2023-06-24T00:53:11;1.08;;;0.20;;
59193;SDS011;44967;48.598;15.650;2023-06-24T00:55:37;0.30;;;0.20;;
59193;SDS011;44967;48.598;15.650;2023-06-24T00:58:03;0.22;;;0.10;;
59193;SDS011;44967;48.598;15.650;2023-06-24T01:00:29;0.10;;;0.10;;
59193;SDS011;44967;48.598;15.650;2023-06-24T01:02:58;0.57;;;0.10;;
59193;SDS011;44967;48.598;15.650;2023-06-24T01:05:24;0.13;;;0.13;;
59193;SDS011;44967;48.598;15.650;2023-06-24T01:07:51;0.10;;;0.10;;
59193;SDS011;44967;48.598;15.650;2023-06-24T01:10:22;0.10;;;0.10;;
59193;SDS011;44967;48.598;15.650;2023-06-24T01:12:48;0.85;;;0.10;;
59193;SDS011;44967;48.598;15.650;2023-06-24T01:15:15;0.75;;;0.10;;
59193;SDS011;44967;48.598;15.650;2023-06-24T01:20:29;0.10;;;0.10;;
59193;SDS011;44967;48.598;15.650;2023-06-24T01:23:11;0.20;;;0.10;;
59193;SDS011;44967;48.598;15.650;2023-06-24T01:26:16;0.10;;;0.10;;
59193;SDS011;44967;48.598;15.650;2023-06-24T01:37:20;0.10;;;0.10;;
59193;SDS011;44967;48.598;15.650;2023-06-24T01:42:51;0.10;;;0.10;;
59193;SDS011;44967;48.598;15.650;2023-06-24T01:45:23;1.02;;;0.10;;
59193;SDS011;44967;48.598;15.650;2023-06-24T01:47:54;0.10;;;0.10;;
59193;SDS011;44967;48.598;15.650;2023-06-24T01:50:32;0.10;;;0.10;;
59193;SDS011;44967;48.598;15.650;2023-06-24T01:53:01;0.08;;;0.08;;
59193;SDS011;44967;48.598;15.650;2023-06-24T01:55:29;0.00;;;0.00;;
59193;SDS011;44967;48.598;15.650;2023-06-24T01:57:58;0.10;;;0.10;;
59193;SDS011;44967;48.598;15.650;2023-06-24T02:00:27;0.10;;;0.10;;
59193;SDS011;44967;48.598;15.650;2023-06-24T02:02:54;0.65;;;0.10;;
59193;SDS011;44967;48.598;15.650;2023-06-24T02:05:21;3.85;;;0.10;;
59193;SDS011;44967;48.598;15.650;2023-06-24T02:07:47;0.10;;;0.10;;
59193;SDS011;44967;48.598;15.650;2023-06-24T02:10:15;0.75;;;0.10;;
59193;SDS011;44967;48.598;15.650;2023-06-24T02:12:43;0.03;;;0.03;;
59193;SDS011;44967;48.598;15.650;2023-06-24T02:15:11;0.08;;;0.08;;
59193;SDS011;44967;48.598;15.650;2023-06-24T02:17:37;0.00;;;0.00;;
59193;SDS011;44967;48.598;15.650;2023-06-24T02:20:05;0.10;;;0.10;;
59193;SDS011;44967;48.598;15.650;2023-06-24T02:22:37;0.10;;;0.10;;
59193;SDS011;44967;48.598;15.650;2023-06-24T02:25:05;0.10;;;0.10;;
59193;SDS011;44967;48.598;15.650;2023-06-24T02:27:33;0.10;;;0.10;;
59193;SDS011;44967;48.598;15.650;2023-06-24T02:30:02;0.00;;;0.00;;
59193;SDS011;44967;48.598;15.650;2023-06-24T02:32:29;0.10;;;0.10;;
59193;SDS011;44967;48.598;15.650;2023-06-24T02:34:54;0.03;;;0.03;;
59193;SDS011;44967;48.598;15.650;2023-06-24T02:37:20;1.27;;;0.10;;
59193;SDS011;44967;48.598;15.650;2023-06-24T02:39:45;0.10;;;0.10;;
59193;SDS011;44967;48.598;15.650;2023-06-24T02:42:11;0.00;;;0.00;;
59193;SDS011;44967;48.598;15.650;2023-06-24T02:44:38;0.20;;;0.10;;
59193;SDS011;44967;48.598;15.650;2023-06-24T02:47:06;0.10;;;0.10;;
59193;SDS011;44967;48.598;15.650;2023-06-24T02:49:35;0.10;;;0.10;;
59193;SDS011;44967;48.598;15.650;2023-06-24T02:52:04;0.10;;;0.10;;
59193;SDS011;44967;48.598;15.650;2023-06-24T02:54:31;0.10;;;0.10;;
59193;SDS011;44967;48.598;15.650;2023-06-24T02:57:01;0.10;;;0.10;;
59193;SDS011;44967;48.598;15.650;2023-06-24T02:59:27;0.10;;;0.10;;
59193;SDS011;44967;48.598;15.650;2023-06-24T03:01:53;0.10;;;0.10;;
59193;SDS011;44967;48.598;15.650;2023-06-24T03:04:19;0.00;;;0.00;;
59193;SDS011;44967;48.598;15.650;2023-06-24T03:06:45;0.10;;;0.10;;
59193;SDS011;44967;48.598;15.650;2023-06-24T03:09:13;0.00;;;0.00;;
59193;SDS011;44967;48.598;15.650;2023-06-24T03:11:41;0.10;;;0.10;;
59193;SDS011;44967;48.598;15.650;2023-06-24T03:14:07;0.10;;;0.10;;
59193;SDS011;44967;48.598;15.650;2023-06-24T03:16:33;0.10;;;0.10;;
59193;SDS011;44967;48.598;15.650;2023-06-24T03:19:00;0.10;;;0.10;;
59193;SDS011;44967;48.598;15.650;2023-06-24T03:21:25;0.10;;;0.10;;
59193;SDS011;44967;48.598;15.650;2023-06-24T03:23:53;0.10;;;0.10;;
59193;SDS011;44967;48.598;15.650;2023-06-24T03:26:20;0.35;;;0.20;;
59193;SDS011;44967;48.598;15.650;2023-06-24T03:28:45;0.20;;;0.15;;
59193;SDS011;44967;48.598;15.650;2023-06-24T03:31:11;0.10;;;0.10;;
59193;SDS011;44967;48.598;15.650;2023-06-24T03:33:40;2.20;;;0.20;;
59193;SDS011;44967;48.598;15.650;2023-06-24T03:36:09;0.45;;;0.10;;
59193;SDS011;44967;48.598;15.650;2023-06-24T03:38:35;0.20;;;0.20;;
59193;SDS011;44967;48.598;15.650;2023-06-24T03:41:01;1.08;;;0.10;;
59193;SDS011;44967;48.598;15.650;2023-06-24T03:43:27;0.20;;;0.10;;
59193;SDS011;44967;48.598;15.650;2023-06-24T03:45:53;0.10;;;0.10;;
59193;SDS011;44967;48.598;15.650;2023-06-24T03:48:20;0.20;;;0.20;;
59193;SDS011;44967;48.598;15.650;2023-06-24T03:50:48;0.88;;;0.10;;
59193;SDS011;44967;48.598;15.650;2023-06-24T03:53:14;0.10;;;0.10;;
59193;SDS011;44967;48.598;15.650;2023-06-24T03:55:40;0.00;;;0.00;;
59193;SDS011;44967;48.598;15.650;2023-06-24T03:58:05;0.10;;;0.10;;
59193;SDS011;44967;48.598;15.650;2023-06-24T04:00:31;0.45;;;0.10;;
59193;SDS011;44967;48.598;15.650;2023-06-24T04:02:58;0.20;;;0.20;;
59193;SDS011;44967;48.598;15.650;2023-06-24T04:05:26;0.10;;;0.10;;
59193;SDS011;44967;48.598;15.650;2023-06-24T04:07:52;0.00;;;0.00;;
59193;SDS011;44967;48.598;15.650;2023-06-24T04:10:19;0.10;;;0.10;;
59193;SDS011;44967;48.598;15.650;2023-06-24T04:12:45;0.10;;;0.10;;
59193;SDS011;44967;48.598;15.650;2023-06-24T04:15:11;0.20;;;0.13;;
59193;SDS011;44967;48.598;15.650;2023-06-24T04:17:37;0.10;;;0.10;;
59193;SDS011;44967;48.598;15.650;2023-06-24T04:20:02;2.28;;;0.15;;
59193;SDS011;44967;48.598;15.650;2023-06-24T04:22:36;0.10;;;0.10;;
59193;SDS011;44967;48.598;15.650;2023-06-24T04:25:03;1.02;;;0.10;;
59193;SDS011;44967;48.598;15.650;2023-06-24T04:27:31;0.10;;;0.10;;
59193;SDS011;44967;48.598;15.650;2023-06-24T04:29:58;0.52;;;0.40;;
59193;SDS011;44967;48.598;15.650;2023-06-24T04:32:25;0.10;;;0.10;;
59193;SDS011;44967;48.598;15.650;2023-06-24T04:34:50;0.20;;;0.20;;
59193;SDS011;44967;48.598;15.650;2023-06-24T04:37:17;0.45;;;0.22;;
59193;SDS011;44967;48.598;15.650;2023-06-24T04:39:45;0.20;;;0.20;;
59193;SDS011;44967;48.598;15.650;2023-06-24T04:42:11;0.20;;;0.20;;
59193;SDS011;44967;48.598;15.650;2023-06-24T04:44:37;1.40;;;0.30;;
59193;SDS011;44967;48.598;15.650;2023-06-24T04:47:02;0.15;;;0.15;;
59193;SDS011;44967;48.598;15.650;2023-06-24T04:49:28;0.20;;;0.20;;
59193;SDS011;44967;48.598;15.650;2023-06-24T04:51:54;0.20;;;0.20;;
59193;SDS011;44967;48.598;15.650;2023-06-24T04:54:20;0.20;;;0.20;;
59193;SDS011;44967;48.598;15.650;2023-06-24T04:56:45;0.90;;;0.40;;
59193;SDS011;44967;48.598;15.650;2023-06-24T04:59:13;0.20;;;0.20;;
59193;SDS011;44967;48.598;15.650;2023-06-24T05:01:40;0.35;;;0.20;;
59193;SDS011;44967;48.598;15.650;2023-06-24T05:04:05;0.30;;;0.30;;
59193;SDS011;44967;48.598;15.650;2023-06-24T05:06:31;0.40;;;0.28;;
59193;SDS011;44967;48.598;15.650;2023-06-24T05:08:56;0.20;;;0.20;;
59193;SDS011;44967;48.598;15.650;2023-06-24T05:11:22;0.20;;;0.20;;
59193;SDS011;44967;48.598;15.650;2023-06-24T05:13:48;0.20;;;0.20;;
59193;SDS011;44967;48.598;15.650;2023-06-24T05:16:14;0.20;;;0.20;;
59193;SDS011;44967;48.598;15.650;2023-06-24T05:18:39;0.32;;;0.32;;
59193;SDS011;44967;48.598;15.650;2023-06-24T05:21:05;0.25;;;0.25;;
59193;SDS011;44967;48.598;15.650;2023-06-24T05:23:30;0.30;;;0.30;;
59193;SDS011;44967;48.598;15.650;2023-06-24T05:25:56;1.05;;;0.30;;
59193;SDS011;44967;48.598;15.650;2023-06-24T05:28:22;0.28;;;0.20;;
59193;SDS011;44967;48.598;15.650;2023-06-24T05:30:48;1.67;;;0.30;;
59193;SDS011;44967;48.598;15.650;2023-06-24T05:33:13;0.30;;;0.30;;
59193;SDS011;44967;48.598;15.650;2023-06-24T05:35:40;0.38;;;0.32;;
59193;SDS011;44967;48.598;15.650;2023-06-24T05:38:08;0.30;;;0.30;;
59193;SDS011;44967;48.598;15.650;2023-06-24T05:40:33;0.40;;;0.40;;
59193;SDS011;44967;48.598;15.650;2023-06-24T05:42:59;0.32;;;0.32;;
59193;SDS011;44967;48.598;15.650;2023-06-24T05:45:26;0.47;;;0.47;;
59193;SDS011;44967;48.598;15.650;2023-06-24T05:47:52;0.50;;;0.50;;
59193;SDS011;44967;48.598;15.650;2023-06-24T05:50:17;0.50;;;0.50;;
59193;SDS011;44967;48.598;15.650;2023-06-24T05:52:43;0.60;;;0.60;;
59193;SDS011;44967;48.598;15.650;2023-06-24T05:55:09;0.43;;;0.43;;
59193;SDS011;44967;48.598;15.650;2023-06-24T05:57:34;2.22;;;0.80;;
59193;SDS011;44967;48.598;15.650;2023-06-24T06:00:00;1.10;;;1.00;;
59193;SDS011;44967;48.598;15.650;2023-06-24T06:02:26;1.00;;;0.90;;
59193;SDS011;44967;48.598;15.650;2023-06-24T06:04:54;1.30;;;1.20;;
59193;SDS011;44967;48.598;15.650;2023-06-24T06:07:20;1.20;;;1.10;;
59193;SDS011;44967;48.598;15.650;2023-06-24T06:09:46;2.97;;;1.45;;
59193;SDS011;44967;48.598;15.650;2023-06-24T06:12:11;1.65;;;1.48;;
59193;SDS011;44967;48.598;15.650;2023-06-24T06:14:37;1.70;;;1.60;;
59193;SDS011;44967;48.598;15.650;2023-06-24T06:17:03;3.42;;;1.73;;
59193;SDS011;44967;48.598;15.650;2023-06-24T06:19:29;2.38;;;2.05;;
59193;SDS011;44967;48.598;15.650;2023-06-24T06:21:55;2.28;;;1.90;;
59193;SDS011;44967;48.598;15.650;2023-06-24T06:24:20;2.17;;;1.92;;
59193;SDS011;44967;48.598;15.650;2023-06-24T06:26:46;2.47;;;2.22;;
59193;SDS011;44967;48.598;15.650;2023-06-24T06:29:11;3.05;;;2.58;;
59193;SDS011;44967;48.598;15.650;2023-06-24T06:31:37;3.25;;;2.38;;
59193;SDS011;44967;48.598;15.650;2023-06-24T06:34:03;2.20;;;2.00;;
59193;SDS011;44967;48.598;15.650;2023-06-24T06:36:29;2.60;;;1.88;;
59193;SDS011;44967;48.598;15.650;2023-06-24T06:38:55;2.25;;;2.00;;
59193;SDS011;44967;48.598;15.650;2023-06-24T06:41:21;3.22;;;2.47;;
59193;SDS011;44967;48.598;15.650;2023-06-24T06:43:53;2.50;;;2.17;;
59193;SDS011;44967;48.598;15.650;2023-06-24T06:46:19;4.07;;;2.60;;
59193;SDS011;44967;48.598;15.650;2023-06-24T06:48:45;2.60;;;2.30;;
59193;SDS011;44967;48.598;15.650;2023-06-24T06:51:13;2.97;;;2.33;;
59193;SDS011;44967;48.598;15.650;2023-06-24T06:53:39;2.92;;;2.38;;
59193;SDS011;44967;48.598;15.650;2023-06-24T06:56:04;3.15;;;2.30;;
59193;SDS011;44967;48.598;15.650;2023-06-24T06:58:30;3.30;;;2.53;;
59193;SDS011;44967;48.598;15.650;2023-06-24T07:00:56;3.60;;;2.38;;
59193;SDS011;44967;48.598;15.650;2023-06-24T07:03:26;3.80;;;3.03;;
59193;SDS011;44967;48.598;15.650;2023-06-24T07:05:53;2.78;;;2.53;;
59193;SDS011;44967;48.598;15.650;2023-06-24T07:08:19;3.60;;;2.80;;
59193;SDS011;44967;48.598;15.650;2023-06-24T07:10:44;3.20;;;2.60;;
59193;SDS011;44967;48.598;15.650;2023-06-24T07:13:10;2.83;;;2.50;;
59193;SDS011;44967;48.598;15.650;2023-06-24T07:15:35;2.58;;;2.38;;
59193;SDS011;44967;48.598;15.650;2023-06-24T07:18:01;3.47;;;2.35;;
59193;SDS011;44967;48.598;15.650;2023-06-24T07:20:27;3.35;;;2.60;;
59193;SDS011;44967;48.598;15.650;2023-06-24T07:22:53;3.30;;;2.33;;
59193;SDS011;44967;48.598;15.650;2023-06-24T07:25:19;2.15;;;1.95;;
59193;SDS011;44967;48.598;15.650;2023-06-24T07:27:44;2.30;;;2.08;;
59193;SDS011;44967;48.598;15.650;2023-06-24T07:30:10;2.10;;;1.88;;
59193;SDS011;44967;48.598;15.650;2023-06-24T07:32:36;1.95;;;1.75;;
59193;SDS011;44967;48.598;15.650;2023-06-24T07:35:02;2.45;;;2.25;;
59193;SDS011;44967;48.598;15.650;2023-06-24T07:37:27;2.22;;;2.03;;
59193;SDS011;44967;48.598;15.650;2023-06-24T07:39:53;2.40;;;2.20;;
59193;SDS011;44967;48.598;15.650;2023-06-24T07:42:19;2.50;;;2.30;;
59193;SDS011;44967;48.598;15.650;2023-06-24T07:44:45;3.00;;;2.25;;
59193;SDS011;44967;48.598;15.650;2023-06-24T07:47:11;2.67;;;2.47;;
59193;SDS011;44967;48.598;15.650;2023-06-24T07:49:36;3.05;;;2.72;;
59193;SDS011;44967;48.598;15.650;2023-06-24T07:52:02;3.20;;;2.50;;
59193;SDS011;44967;48.598;15.650;2023-06-24T07:54:29;3.40;;;2.78;;
59193;SDS011;44967;48.598;15.650;2023-06-24T07:56:55;5.00;;;3.08;;
59193;SDS011;44967;48.598;15.650;2023-06-24T07:59:22;3.92;;;2.65;;
59193;SDS011;44967;48.598;15.650;2023-06-24T08:01:47;3.20;;;2.90;;
59193;SDS011;44967;48.598;15.650;2023-06-24T08:04:14;4.53;;;3.05;;
59193;SDS011;44967;48.598;15.650;2023-06-24T08:06:40;3.83;;;3.13;;
59193;SDS011;44967;48.598;15.650;2023-06-24T08:09:06;3.08;;;2.78;;
59193;SDS011;44967;48.598;15.650;2023-06-24T08:11:31;3.17;;;2.88;;
59193;SDS011;44967;48.598;15.650;2023-06-24T08:13:57;3.70;;;3.10;;
59193;SDS011;44967;48.598;15.650;2023-06-24T08:16:23;5.00;;;3.25;;
59193;SDS011;44967;48.598;15.650;2023-06-24T08:18:49;3.65;;;3.30;;
59193;SDS011;44967;48.598;15.650;2023-06-24T08:21:15;4.30;;;3.20;;
59193;SDS011;44967;48.598;15.650;2023-06-24T08:23:40;3.72;;;2.97;;
59193;SDS011;44967;48.598;15.650;2023-06-24T08:26:06;4.15;;;3.33;;
59193;SDS011;44967;48.598;15.650;2023-06-24T08:28:33;4.30;;;3.30;;
59193;SDS011;44967;48.598;15.650;2023-06-24T08:30:58;4.15;;;3.15;;
59193;SDS011;44967;48.598;15.650;2023-06-24T08:33:24;3.75;;;3.17;;
59193;SDS011;44967;48.598;15.650;2023-06-24T08:35:50;6.93;;;3.92;;
59193;SDS011;44967;48.598;15.650;2023-06-24T08:38:15;5.10;;;4.15;;
59193;SDS011;44967;48.598;15.650;2023-06-24T08:40:41;4.43;;;3.90;;
59193;SDS011;44967;48.598;15.650;2023-06-24T08:43:08;5.53;;;4.20;;
59193;SDS011;44967;48.598;15.650;2023-06-24T08:45:34;4.93;;;3.72;;
59193;SDS011;44967;48.598;15.650;2023-06-24T08:48:00;6.50;;;4.18;;
59193;SDS011;44967;48.598;15.650;2023-06-24T08:50:30;4.82;;;4.28;;
59193;SDS011;44967;48.598;15.650;2023-06-24T08:52:59;5.93;;;4.65;;
59193;SDS011;44967;48.598;15.650;2023-06-24T08:55:30;7.43;;;5.20;;
59193;SDS011;44967;48.598;15.650;2023-06-24T08:57:59;5.60;;;4.38;;
59193;SDS011;44967;48.598;15.650;2023-06-24T09:00:25;5.47;;;4.95;;
59193;SDS011;44967;48.598;15.650;2023-06-24T09:02:52;6.65;;;5.40;;
59193;SDS011;44967;48.598;15.650;2023-06-24T09:05:17;5.43;;;4.90;;
59193;SDS011;44967;48.598;15.650;2023-06-24T09:07:43;6.45;;;4.97;;
59193;SDS011;44967;48.598;15.650;2023-06-24T09:10:09;7.43;;;5.45;;
59193;SDS011;44967;48.598;15.650;2023-06-24T09:12:35;8.23;;;5.70;;
59193;SDS011;44967;48.598;15.650;2023-06-24T09:15:01;7.38;;;5.70;;
59193;SDS011;44967;48.598;15.650;2023-06-24T09:17:28;6.93;;;5.05;;
59193;SDS011;44967;48.598;15.650;2023-06-24T09:19:54;6.70;;;5.88;;
59193;SDS011;44967;48.598;15.650;2023-06-24T09:22:29;6.20;;;5.45;;
59193;SDS011;44967;48.598;15.650;2023-06-24T09:24:56;5.95;;;5.35;;
59193;SDS011;44967;48.598;15.650;2023-06-24T09:27:21;7.45;;;5.93;;
59193;SDS011;44967;48.598;15.650;2023-06-24T09:29:49;7.03;;;5.45;;
59193;SDS011;44967;48.598;15.650;2023-06-24T09:32:15;6.90;;;5.78;;
59193;SDS011;44967;48.598;15.650;2023-06-24T09:34:40;7.82;;;6.18;;
59193;SDS011;44967;48.598;15.650;2023-06-24T09:37:06;6.82;;;5.30;;
59193;SDS011;44967;48.598;15.650;2023-06-24T09:39:39;7.22;;;5.60;;
59193;SDS011;44967;48.598;15.650;2023-06-24T09:42:05;7.70;;;5.22;;
59193;SDS011;44967;48.598;15.650;2023-06-24T09:44:32;7.95;;;6.15;;
59193;SDS011;44967;48.598;15.650;2023-06-24T09:46:58;10.65;;;5.57;;
59193;SDS011;44967;48.598;15.650;2023-06-24T09:49:24;6.28;;;5.28;;
59193;SDS011;44967;48.598;15.650;2023-06-24T09:51:56;7.10;;;5.65;;
59193;SDS011;44967;48.598;15.650;2023-06-24T09:54:24;6.45;;;5.38;;
59193;SDS011;44967;48.598;15.650;2023-06-24T09:56:53;7.57;;;6.40;;
59193;SDS011;44967;48.598;15.650;2023-06-24T09:59:20;6.15;;;5.40;;
59193;SDS011;44967;48.598;15.650;2023-06-24T10:01:47;6.15;;;5.55;;
59193;SDS011;44967;48.598;15.650;2023-06-24T10:04:17;7.22;;;6.43;;
59193;SDS011;44967;48.598;15.650;2023-06-24T10:06:44;6.95;;;5.28;;
59193;SDS011;44967;48.598;15.650;2023-06-24T10:09:11;7.68;;;5.75;;
59193;SDS011;44967;48.598;15.650;2023-06-24T10:11:39;6.72;;;5.63;;
59193;SDS011;44967;48.598;15.650;2023-06-24T10:14:05;7.10;;;5.72;;
59193;SDS011;44967;48.598;15.650;2023-06-24T10:16:31;6.35;;;5.70;;
59193;SDS011;44967;48.598;15.650;2023-06-24T10:19:00;7.53;;;6.10;;
59193;SDS011;44967;48.598;15.650;2023-06-24T10:24:27;6.65;;;5.55;;
59193;SDS011;44967;48.598;15.650;2023-06-24T10:27:03;6.68;;;5.38;;
59193;SDS011;44967;48.598;15.650;2023-06-24T10:29:35;6.43;;;5.45;;
59193;SDS011;44967;48.598;15.650;2023-06-24T10:32:03;7.00;;;5.55;;
59193;SDS011;44967;48.598;15.650;2023-06-24T10:35:20;6.03;;;5.40;;
59193;SDS011;44967;48.598;15.650;2023-06-24T10:37:21;9.68;;;5.97;;
59193;SDS011;44967;48.598;15.650;2023-06-24T10:39:51;7.35;;;5.80;;
59193;SDS011;44967;48.598;15.650;2023-06-24T10:42:25;6.38;;;4.85;;
59193;SDS011;44967;48.598;15.650;2023-06-24T10:50:07;5.80;;;5.03;;
59193;SDS011;44967;48.598;15.650;2023-06-24T10:52:40;5.93;;;5.30;;
59193;SDS011;44967;48.598;15.650;2023-06-24T10:55:09;5.93;;;4.97;;
59193;SDS011;44967;48.598;15.650;2023-06-24T10:57:35;5.32;;;4.80;;
59193;SDS011;44967;48.598;15.650;2023-06-24T11:00:02;4.85;;;4.35;;
59193;SDS011;44967;48.598;15.650;2023-06-24T11:02:29;5.80;;;4.97;;
59193;SDS011;44967;48.598;15.650;2023-06-24T11:04:56;5.80;;;4.93;;
59193;SDS011;44967;48.598;15.650;2023-06-24T11:07:24;4.97;;;4.47;;
59193;SDS011;44967;48.598;15.650;2023-06-24T11:09:51;5.20;;;4.13;;
59193;SDS011;44967;48.598;15.650;2023-06-24T11:12:18;5.00;;;4.30;;
59193;SDS011;44967;48.598;15.650;2023-06-24T11:14:44;6.22;;;5.03;;
59193;SDS011;44967;48.598;15.650;2023-06-24T11:17:10;6.97;;;5.13;;
59193;SDS011;44967;48.598;15.650;2023-06-24T11:19:36;5.45;;;4.72;;
59193;SDS011;44967;48.598;15.650;2023-06-24T11:22:05;6.05;;;4.78;;
59193;SDS011;44967;48.598;15.650;2023-06-24T11:24:32;5.72;;;5.22;;
59193;SDS011;44967;48.598;15.650;2023-06-24T11:26:58;6.85;;;5.22;;
59193;SDS011;44967;48.598;15.650;2023-06-24T11:29:23;6.43;;;4.70;;
59193;SDS011;44967;48.598;15.650;2023-06-24T11:31:50;6.05;;;5.15;;
59193;SDS011;44967;48.598;15.650;2023-06-24T11:34:16;5.82;;;5.22;;
59193;SDS011;44967;48.598;15.650;2023-06-24T11:36:42;5.88;;;5.15;;
59193;SDS011;44967;48.598;15.650;2023-06-24T11:39:08;6.35;;;5.72;;
59193;SDS011;44967;48.598;15.650;2023-06-24T11:41:46;7.30;;;6.00;;
59193;SDS011;44967;48.598;15.650;2023-06-24T11:44:12;6.53;;;5.38;;
59193;SDS011;44967;48.598;15.650;2023-06-24T11:46:38;6.25;;;5.65;;
59193;SDS011;44967;48.598;15.650;2023-06-24T11:49:07;6.90;;;5.60;;
59193;SDS011;44967;48.598;15.650;2023-06-24T11:51:33;5.90;;;5.30;;
59193;SDS011;44967;48.598;15.650;2023-06-24T11:54:01;6.15;;;5.43;;
59193;SDS011;44967;48.598;15.650;2023-06-24T11:56:35;5.55;;;5.05;;
59193;SDS011;44967;48.598;15.650;2023-06-24T11:59:14;7.63;;;5.32;;
59193;SDS011;44967;48.598;15.650;2023-06-24T12:01:45;5.85;;;5.25;;
59193;SDS011;44967;48.598;15.650;2023-06-24T12:04:17;7.03;;;5.53;;
59193;SDS011;44967;48.598;15.650;2023-06-24T12:06:43;5.45;;;4.75;;
59193;SDS011;44967;48.598;15.650;2023-06-24T12:09:10;6.97;;;5.50;;
59193;SDS011;44967;48.598;15.650;2023-06-24T12:11:36;6.85;;;5.20;;
59193;SDS011;44967;48.598;15.650;2023-06-24T12:14:02;7.20;;;6.15;;
59193;SDS011;44967;48.598;15.650;2023-06-24T12:16:29;6.55;;;5.43;;
59193;SDS011;44967;48.598;15.650;2023-06-24T12:18:55;5.95;;;5.05;;
59193;SDS011;44967;48.598;15.650;2023-06-24T12:21:20;6.32;;;5.20;;
59193;SDS011;44967;48.598;15.650;2023-06-24T12:23:46;6.30;;;5.60;;
59193;SDS011;44967;48.598;15.650;2023-06-24T12:26:13;5.40;;;4.90;;
59193;SDS011;44967;48.598;15.650;2023-06-24T12:28:38;5.50;;;5.00;;
59193;SDS011;44967;48.598;15.650;2023-06-24T12:31:04;6.22;;;5.63;;
59193;SDS011;44967;48.598;15.650;2023-06-24T12:33:30;5.68;;;5.18;;
59193;SDS011;44967;48.598;15.650;2023-06-24T12:35:56;6.03;;;5.53;;
59193;SDS011;44967;48.598;15.650;2023-06-24T12:38:22;6.65;;;5.95;;
59193;SDS011;44967;48.598;15.650;2023-06-24T12:40:47;7.07;;;6.30;;
59193;SDS011;44967;48.598;15.650;2023-06-24T12:43:13;8.10;;;6.22;;
59193;SDS011;44967;48.598;15.650;2023-06-24T12:45:40;7.72;;;6.45;;
59193;SDS011;44967;48.598;15.650;2023-06-24T12:48:08;7.75;;;6.95;;
59193;SDS011;44967;48.598;15.650;2023-06-24T12:50:38;6.45;;;5.85;;
59193;SDS011;44967;48.598;15.650;2023-06-24T12:53:04;8.27;;;6.80;;
59193;SDS011;44967;48.598;15.650;2023-06-24T12:55:30;7.28;;;6.57;;
59193;SDS011;44967;48.598;15.650;2023-06-24T12:57:56;7.70;;;6.70;;
59193;SDS011;44967;48.598;15.650;2023-06-24T13:00:22;8.90;;;7.20;;
59193;SDS011;44967;48.598;15.650;2023-06-24T13:02:50;8.57;;;6.68;;
59193;SDS011;44967;48.598;15.650;2023-06-24T13:05:16;7.45;;;6.75;;
59193;SDS011;44967;48.598;15.650;2023-06-24T13:07:43;7.40;;;6.70;;
59193;SDS011;44967;48.598;15.650;2023-06-24T13:10:09;7.28;;;6.57;;
59193;SDS011;44967;48.598;15.650;2023-06-24T13:12:35;7.53;;;6.28;;
59193;SDS011;44967;48.598;15.650;2023-06-24T13:15:06;7.20;;;5.93;;
59193;SDS011;44967;48.598;15.650;2023-06-24T13:17:34;8.13;;;6.28;;
59193;SDS011;44967;48.598;15.650;2023-06-24T13:20:00;6.97;;;6.25;;
59193;SDS011;44967;48.598;15.650;2023-06-24T13:22:28;7.40;;;6.70;;
59193;SDS011;44967;48.598;15.650;2023-06-24T13:24:53;6.20;;;5.60;;
59193;SDS011;44967;48.598;15.650;2023-06-24T13:27:19;6.90;;;6.20;;
59193;SDS011;44967;48.598;15.650;2023-06-24T13:29:45;7.75;;;6.18;;
59193;SDS011;44967;48.598;15.650;2023-06-24T13:32:11;7.68;;;5.95;;
59193;SDS011;44967;48.598;15.650;2023-06-24T13:34:37;7.00;;;6.35;;
59193;SDS011;44967;48.598;15.650;2023-06-24T13:37:03;6.70;;;6.00;;
59193;SDS011;44967;48.598;15.650;2023-06-24T13:39:29;8.02;;;7.22;;
59193;SDS011;44967;48.598;15.650;2023-06-24T13:41:55;7.43;;;6.00;;
59193;SDS011;44967;48.598;15.650;2023-06-24T13:44:22;7.00;;;6.03;;
59193;SDS011;44967;48.598;15.650;2023-06-24T13:46:49;7.13;;;6.43;;
59193;SDS011;44967;48.598;15.650;2023-06-24T13:49:15;6.30;;;5.70;;
59193;SDS011;44967;48.598;15.650;2023-06-24T13:51:41;6.72;;;6.03;;
59193;SDS011;44967;48.598;15.650;2023-06-24T13:54:07;7.80;;;6.55;;
59193;SDS011;44967;48.598;15.650;2023-06-24T13:56:33;6.57;;;5.97;;
59193;SDS011;44967;48.598;15.650;2023-06-24T13:58:59;7.43;;;6.13;;
59193;SDS011;44967;48.598;15.650;2023-06-24T14:01:25;6.50;;;5.90;;
59193;SDS011;44967;48.598;15.650;2023-06-24T14:03:53;6.40;;;5.80;;
59193;SDS011;44967;48.598;15.650;2023-06-24T14:06:23;6.07;;;5.50;;
59193;SDS011;44967;48.598;15.650;2023-06-24T14:08:51;7.07;;;6.10;;
59193;SDS011;44967;48.598;15.650;2023-06-24T14:11:17;6.32;;;5.65;;
59193;SDS011;44967;48.598;15.650;2023-06-24T14:13:42;6.35;;;5.75;;
59193;SDS011;44967;48.598;15.650;2023-06-24T14:16:09;6.55;;;5.50;;
59193;SDS011;44967;48.598;15.650;2023-06-24T14:18:38;5.65;;;5.15;;
59193;SDS011;44967;48.598;15.650;2023-06-24T14:21:05;8.55;;;5.85;;
59193;SDS011;44967;48.598;15.650;2023-06-24T14:23:32;6.05;;;5.45;;
59193;SDS011;44967;48.598;15.650;2023-06-24T14:25:58;6.22;;;5.68;;
59193;SDS011;44967;48.598;15.650;2023-06-24T14:28:25;6.50;;;5.75;;
59193;SDS011;44967;48.598;15.650;2023-06-24T14:30:51;5.40;;;4.95;;
59193;SDS011;44967;48.598;15.650;2023-06-24T14:33:17;5.65;;;5.07;;
59193;SDS011;44967;48.598;15.650;2023-06-24T14:35:42;7.25;;;5.40;;
59193;SDS011;44967;48.598;15.650;2023-06-24T14:38:08;7.20;;;5.15;;
59193;SDS011;44967;48.598;15.650;2023-06-24T14:40:34;6.20;;;5.20;;
59193;SDS011;44967;48.598;15.650;2023-06-24T14:43:00;7.30;;;5.50;;
59193;SDS011;44967;48.598;15.650;2023-06-24T14:45:26;6.45;;;5.85;;
59193;SDS011;44967;48.598;15.650;2023-06-24T14:47:52;6.63;;;6.00;;
59193;SDS011;44967;48.598;15.650;2023-06-24T14:50:18;6.47;;;5.88;;
59193;SDS011;44967;48.598;15.650;2023-06-24T14:52:46;6.40;;;5.80;;
59193;SDS011;44967;48.598;15.650;2023-06-24T14:55:12;7.53;;;6.15;;